Time;durP1;ratioP1;P1;durP2;ratioP2;P2;SDS_P1;SDS_P2;PMS_P1;PMS_P2;Temp;Humidity;BMP_temperature;BMP_pressure;BME280_temperature;BME280_humidity;BME280_pressure;Samples;Min_cycle;Max_cycle;Signal;HPM_P1;HPM_P2
2021/12/18 00:01:06;;;;;;;19.30;10.98;;;;;;;;;;5004688;28;20053;-80
2021/12/18 00:03:32;;;;;;;19.63;12.05;;;;;;;;;;5003403;28;20703;-85
2021/12/18 00:05:58;;;;;;;24.27;12.73;;;;;;;;;;4997720;28;20022;-85
2021/12/18 00:08:24;;;;;;;21.80;12.23;;;;;;;;;;4978237;28;20058;-85
2021/12/18 00:10:50;;;;;;;20.83;12.38;;;;;;;;;;4999213;28;20018;-79
2021/12/18 00:13:16;;;;;;;21.52;12.48;;;;;;;;;;4982733;28;20025;-82
2021/12/18 00:15:41;;;;;;;21.00;12.02;;;;;;;;;;4985660;28;20027;-83
2021/12/18 00:18:06;;;;;;;21.98;11.75;;;;;;;;;;4996944;28;20029;-85
2021/12/18 00:20:35;;;;;;;21.88;12.65;;;;;;;;;;4978355;28;20604;-84
2021/12/18 00:23:00;;;;;;;20.00;11.80;;;;;;;;;;5001022;28;20457;-83
2021/12/18 00:25:25;;;;;;;20.33;11.40;;;;;;;;;;4984767;28;20018;-84
2021/12/18 00:27:51;;;;;;;18.58;11.38;;;;;;;;;;4998030;28;20452;-84
2021/12/18 00:30:17;;;;;;;21.80;11.82;;;;;;;;;;4976654;28;20022;-84
2021/12/18 00:32:42;;;;;;;20.92;10.05;;;;;;;;;;5003392;28;20112;-85
2021/12/18 00:35:08;;;;;;;17.88;11.00;;;;;;;;;;5003125;28;20153;-84
2021/12/18 00:37:33;;;;;;;17.48;10.48;;;;;;;;;;4998979;28;20109;-84
2021/12/18 00:40:00;;;;;;;21.20;11.85;;;;;;;;;;4980655;28;20105;-82
2021/12/18 00:45:06;;;;;;;20.80;11.70;;;;;;;;;;4999614;28;20545;-86
2021/12/18 00:47:32;;;;;;;20.83;11.00;;;;;;;;;;4971671;28;20033;-82
2021/12/18 00:49:57;;;;;;;17.13;11.35;;;;;;;;;;4992438;28;20026;-85
2021/12/18 00:52:23;;;;;;;20.17;11.55;;;;;;;;;;4997845;28;20029;-85
2021/12/18 00:54:49;;;;;;;22.45;13.32;;;;;;;;;;4984067;28;20014;-80
2021/12/18 00:57:14;;;;;;;24.08;11.32;;;;;;;;;;4993923;28;20721;-85
2021/12/18 00:59:39;;;;;;;18.00;10.38;;;;;;;;;;4998942;28;20107;-85
2021/12/18 01:02:05;;;;;;;20.95;12.52;;;;;;;;;;4987414;28;20022;-83
2021/12/18 01:04:30;;;;;;;22.70;13.07;;;;;;;;;;5006616;28;20435;-83
2021/12/18 01:06:56;;;;;;;23.75;13.35;;;;;;;;;;4983521;28;20023;-84
2021/12/18 01:09:43;;;;;;;21.95;12.57;;;;;;;;;;4999738;28;20014;-85
2021/12/18 01:12:07;;;;;;;19.50;10.25;;;;;;;;;;5005731;28;20040;-79
2021/12/18 01:14:47;;;;;;;19.15;12.48;;;;;;;;;;5008924;28;20023;-85
2021/12/18 01:22:43;;;;;;;23.25;12.82;;;;;;;;;;5002037;28;20029;-86
2021/12/18 01:25:09;;;;;;;16.77;9.60;;;;;;;;;;4998061;28;21044;-81
2021/12/18 01:27:35;;;;;;;20.98;13.48;;;;;;;;;;5000256;28;20093;-82
2021/12/18 01:30:02;;;;;;;23.63;13.27;;;;;;;;;;4990839;28;20014;-85
2021/12/18 01:32:28;;;;;;;20.45;11.80;;;;;;;;;;4980425;28;20030;-84
2021/12/18 01:34:54;;;;;;;21.27;11.93;;;;;;;;;;5002842;28;20101;-85
2021/12/18 01:37:20;;;;;;;20.85;11.95;;;;;;;;;;5000484;28;20038;-79
2021/12/18 01:39:46;;;;;;;21.80;12.73;;;;;;;;;;4987749;28;20026;-85
2021/12/18 01:45:19;;;;;;;22.02;11.75;;;;;;;;;;5006026;28;20057;-84
2021/12/18 01:53:13;;;;;;;22.33;12.48;;;;;;;;;;5004168;28;20094;-85
2021/12/18 01:55:40;;;;;;;20.70;12.57;;;;;;;;;;5001065;28;20050;-82
2021/12/18 01:58:07;;;;;;;26.02;13.60;;;;;;;;;;4999354;28;20026;-83
2021/12/18 02:00:40;;;;;;;23.15;13.15;;;;;;;;;;5003752;28;20022;-81
2021/12/18 02:03:09;;;;;;;20.63;11.82;;;;;;;;;;4998826;28;20053;-82
2021/12/18 02:05:37;;;;;;;23.77;13.35;;;;;;;;;;4990406;28;20026;-82
2021/12/18 02:08:03;;;;;;;21.55;12.93;;;;;;;;;;4972509;28;20140;-83
2021/12/18 02:10:31;;;;;;;21.02;12.18;;;;;;;;;;4997975;28;20437;-82
2021/12/18 02:20:59;;;;;;;25.52;13.63;;;;;;;;;;4995717;28;20155;-83
2021/12/18 02:23:25;;;;;;;22.35;12.35;;;;;;;;;;4997967;28;20026;-85
2021/12/18 02:25:51;;;;;;;25.65;13.85;;;;;;;;;;4998942;28;20032;-79
2021/12/18 02:28:21;;;;;;;24.38;12.63;;;;;;;;;;4981918;28;20075;-82
2021/12/18 02:30:48;;;;;;;21.95;11.73;;;;;;;;;;5005639;28;20053;-82
2021/12/18 02:33:14;;;;;;;22.40;12.80;;;;;;;;;;4998678;28;20046;-83
2021/12/18 02:35:46;;;;;;;27.88;15.45;;;;;;;;;;4998986;28;20077;-85
2021/12/18 02:38:20;;;;;;;20.33;10.70;;;;;;;;;;4995876;28;20053;-78
2021/12/18 02:40:59;;;;;;;19.60;10.07;;;;;;;;;;4996320;28;20081;-82
2021/12/18 02:43:27;;;;;;;23.13;12.40;;;;;;;;;;5003703;28;20024;-84
2021/12/18 02:45:55;;;;;;;26.77;13.60;;;;;;;;;;4999736;28;20641;-79
2021/12/18 02:48:22;;;;;;;23.30;13.18;;;;;;;;;;4975315;28;20050;-85
2021/12/18 02:50:47;;;;;;;24.65;13.60;;;;;;;;;;4980954;28;20026;-82
2021/12/18 02:53:13;;;;;;;25.88;13.90;;;;;;;;;;4991899;28;20029;-82
2021/12/18 02:55:38;;;;;;;26.95;13.75;;;;;;;;;;4999751;28;20039;-83
2021/12/18 02:58:04;;;;;;;25.63;13.45;;;;;;;;;;4998077;28;20065;-83
2021/12/18 03:00:29;;;;;;;20.08;12.48;;;;;;;;;;5011425;28;20022;-82
2021/12/18 03:02:55;;;;;;;26.88;13.65;;;;;;;;;;5002036;28;20052;-82
2021/12/18 03:05:28;;;;;;;24.60;13.25;;;;;;;;;;5019549;28;20029;-83
2021/12/18 03:08:00;;;;;;;24.95;14.93;;;;;;;;;;5005651;28;20464;-82
2021/12/18 03:19:43;;;;;;;26.27;14.10;;;;;;;;;;5001601;28;20073;-83
2021/12/18 03:24:34;;;;;;;15.23;9.13;;;;;;;;;;5001192;28;20548;-82
2021/12/18 03:27:00;;;;;;;23.52;12.52;;;;;;;;;;5002029;28;20454;-83
2021/12/18 03:29:26;;;;;;;26.00;12.90;;;;;;;;;;5015242;28;20029;-84
2021/12/18 03:31:51;;;;;;;23.95;12.65;;;;;;;;;;4981882;28;20032;-81
2021/12/18 03:34:16;;;;;;;23.30;12.15;;;;;;;;;;5008644;28;20022;-81
2021/12/18 03:36:42;;;;;;;23.15;11.35;;;;;;;;;;5015039;28;20054;-84
2021/12/18 03:39:07;;;;;;;24.45;13.23;;;;;;;;;;5017622;28;20441;-82
2021/12/18 03:41:33;;;;;;;22.65;12.80;;;;;;;;;;5019729;28;20021;-82
2021/12/18 03:43:58;;;;;;;24.95;12.23;;;;;;;;;;5016231;28;20025;-82
2021/12/18 03:46:24;;;;;;;27.00;12.38;;;;;;;;;;4997740;28;20381;-84
2021/12/18 03:48:49;;;;;;;26.38;13.93;;;;;;;;;;4997202;28;20014;-82
2021/12/18 03:51:15;;;;;;;26.98;14.20;;;;;;;;;;4993957;28;20024;-83
2021/12/18 03:53:40;;;;;;;25.48;13.75;;;;;;;;;;4975492;28;20027;-83
2021/12/18 03:56:06;;;;;;;21.67;12.20;;;;;;;;;;4988627;28;20057;-82
2021/12/18 03:58:31;;;;;;;24.17;12.68;;;;;;;;;;4985537;28;20026;-83
2021/12/18 04:00:56;;;;;;;23.98;13.20;;;;;;;;;;4999987;28;20014;-82
2021/12/18 04:03:22;;;;;;;27.75;14.38;;;;;;;;;;4982159;28;20094;-83
2021/12/18 04:05:48;;;;;;;29.25;14.60;;;;;;;;;;4999780;28;20033;-82
2021/12/18 04:08:14;;;;;;;21.65;11.93;;;;;;;;;;4993978;28;20186;-82
2021/12/18 04:10:41;;;;;;;24.02;13.82;;;;;;;;;;4980488;28;20105;-83
2021/12/18 04:13:08;;;;;;;23.73;11.73;;;;;;;;;;5010098;28;20027;-82
2021/12/18 04:15:35;;;;;;;21.10;11.13;;;;;;;;;;5003603;28;20019;-83
2021/12/18 04:18:01;;;;;;;24.75;13.20;;;;;;;;;;5003647;28;20469;-83
2021/12/18 04:20:27;;;;;;;24.15;11.73;;;;;;;;;;5003615;28;20111;-83
2021/12/18 04:22:53;;;;;;;24.77;13.02;;;;;;;;;;5003532;28;20026;-83
2021/12/18 04:25:18;;;;;;;22.33;11.05;;;;;;;;;;5003398;28;20046;-82
2021/12/18 04:27:43;;;;;;;25.42;13.05;;;;;;;;;;5007973;28;20030;-83
2021/12/18 04:30:09;;;;;;;24.58;11.32;;;;;;;;;;5004025;28;20030;-83
2021/12/18 04:32:35;;;;;;;26.17;12.35;;;;;;;;;;5004539;28;20027;-82
2021/12/18 04:35:00;;;;;;;22.98;12.13;;;;;;;;;;5003561;28;20026;-82
2021/12/18 04:37:26;;;;;;;24.33;12.30;;;;;;;;;;5004318;28;20030;-82
2021/12/18 04:39:52;;;;;;;21.48;11.02;;;;;;;;;;5000642;28;20091;-82
2021/12/18 04:42:17;;;;;;;22.80;11.70;;;;;;;;;;5013790;28;20093;-83
2021/12/18 04:44:43;;;;;;;23.58;11.88;;;;;;;;;;4990390;28;20038;-82
2021/12/18 04:47:08;;;;;;;25.30;13.50;;;;;;;;;;5003832;28;20026;-83
2021/12/18 04:49:34;;;;;;;22.42;11.32;;;;;;;;;;5004869;28;20441;-83
2021/12/18 04:51:59;;;;;;;24.90;11.80;;;;;;;;;;4986476;28;20030;-83
2021/12/18 04:54:25;;;;;;;20.90;11.60;;;;;;;;;;5006401;28;20037;-83
2021/12/18 04:56:50;;;;;;;22.55;11.40;;;;;;;;;;4994106;28;20029;-81
2021/12/18 04:59:16;;;;;;;18.08;9.32;;;;;;;;;;5023971;28;20014;-82
2021/12/18 05:01:42;;;;;;;21.33;9.77;;;;;;;;;;5005304;28;20061;-82
2021/12/18 05:04:10;;;;;;;9.75;6.13;;;;;;;;;;5014859;28;20022;-82
2021/12/18 05:06:40;;;;;;;19.13;9.20;;;;;;;;;;5017783;28;20087;-81
2021/12/18 05:09:05;;;;;;;22.50;9.27;;;;;;;;;;5021774;28;20026;-82
2021/12/18 05:11:31;;;;;;;18.00;9.55;;;;;;;;;;5000030;28;20061;-83
2021/12/18 05:13:56;;;;;;;21.52;10.32;;;;;;;;;;5011018;28;20050;-84
2021/12/18 05:16:21;;;;;;;21.67;9.57;;;;;;;;;;5002969;28;20130;-83
2021/12/18 05:18:47;;;;;;;19.92;9.80;;;;;;;;;;5003130;28;20030;-84
2021/12/18 05:21:12;;;;;;;16.75;8.38;;;;;;;;;;4990863;28;20042;-83
2021/12/18 05:23:38;;;;;;;21.38;11.18;;;;;;;;;;4987167;28;20113;-83
2021/12/18 05:26:03;;;;;;;18.73;9.52;;;;;;;;;;5005577;28;20045;-83
2021/12/18 05:28:28;;;;;;;19.63;10.10;;;;;;;;;;5005714;28;20026;-83
2021/12/18 05:30:54;;;;;;;16.70;8.90;;;;;;;;;;5010145;28;20113;-84
2021/12/18 05:33:19;;;;;;;20.73;10.73;;;;;;;;;;5001089;28;20039;-83
2021/12/18 05:35:45;;;;;;;22.35;10.55;;;;;;;;;;4995713;28;20030;-83
2021/12/18 05:38:10;;;;;;;16.52;8.60;;;;;;;;;;5009428;28;20084;-82
2021/12/18 05:40:37;;;;;;;19.95;9.70;;;;;;;;;;5008309;28;20400;-85
2021/12/18 05:43:03;;;;;;;16.42;8.60;;;;;;;;;;5005257;28;20034;-83
2021/12/18 05:45:29;;;;;;;17.98;8.55;;;;;;;;;;5003527;28;20026;-82
2021/12/18 05:47:55;;;;;;;18.35;9.18;;;;;;;;;;5002474;28;20045;-83
2021/12/18 05:50:22;;;;;;;16.42;9.13;;;;;;;;;;4986458;28;20030;-81
2021/12/18 05:52:48;;;;;;;16.70;8.90;;;;;;;;;;5004370;28;20495;-82
2021/12/18 05:55:15;;;;;;;18.42;8.57;;;;;;;;;;4997228;28;20465;-82
2021/12/18 05:57:41;;;;;;;15.50;7.22;;;;;;;;;;4998200;28;20082;-82
2021/12/18 06:00:08;;;;;;;16.88;8.40;;;;;;;;;;5019254;28;20116;-81
2021/12/18 06:02:33;;;;;;;16.45;7.90;;;;;;;;;;4984449;28;20042;-81
2021/12/18 06:04:58;;;;;;;17.27;8.02;;;;;;;;;;5010142;28;20056;-82
2021/12/18 06:07:32;;;;;;;15.10;7.43;;;;;;;;;;4993107;28;20061;-81
2021/12/18 06:09:59;;;;;;;14.27;7.45;;;;;;;;;;4997081;28;20038;-83
2021/12/18 06:12:26;;;;;;;12.10;5.78;;;;;;;;;;5000267;28;20026;-84
2021/12/18 06:14:51;;;;;;;14.15;7.30;;;;;;;;;;4981110;28;20398;-81
2021/12/18 06:17:17;;;;;;;12.38;6.25;;;;;;;;;;5003347;28;20519;-83
2021/12/18 06:19:43;;;;;;;12.05;7.47;;;;;;;;;;4980239;28;20121;-84
2021/12/18 06:22:08;;;;;;;15.30;8.27;;;;;;;;;;5003819;28;20057;-81
2021/12/18 06:24:33;;;;;;;13.25;6.47;;;;;;;;;;5016402;28;20018;-80
2021/12/18 06:26:59;;;;;;;12.45;7.03;;;;;;;;;;5004037;28;20045;-79
2021/12/18 06:29:24;;;;;;;14.23;7.70;;;;;;;;;;5011795;28;20034;-79
2021/12/18 06:31:50;;;;;;;15.50;7.50;;;;;;;;;;5015723;28;20034;-80
2021/12/18 06:34:16;;;;;;;13.50;7.32;;;;;;;;;;5014191;28;20030;-80
2021/12/18 06:36:41;;;;;;;14.75;7.22;;;;;;;;;;5008547;28;20022;-80
2021/12/18 06:39:07;;;;;;;14.40;7.35;;;;;;;;;;5014157;28;20036;-82
2021/12/18 06:41:33;;;;;;;14.18;7.25;;;;;;;;;;5025804;28;20021;-80
2021/12/18 06:43:59;;;;;;;14.93;7.35;;;;;;;;;;5012811;28;20048;-81
2021/12/18 06:46:24;;;;;;;16.70;8.55;;;;;;;;;;5002651;28;20022;-81
2021/12/18 06:48:50;;;;;;;13.95;7.65;;;;;;;;;;5011503;28;20033;-81
2021/12/18 06:51:19;;;;;;;12.48;7.18;;;;;;;;;;4999300;28;20053;-82
2021/12/18 06:53:45;;;;;;;16.95;9.18;;;;;;;;;;5033114;28;20090;-80
2021/12/18 06:56:10;;;;;;;17.70;7.68;;;;;;;;;;5017060;28;20500;-83
2021/12/18 06:58:36;;;;;;;15.05;7.93;;;;;;;;;;5005060;28;20036;-82
2021/12/18 07:01:01;;;;;;;14.35;7.07;;;;;;;;;;4983313;28;20030;-82
2021/12/18 07:03:26;;;;;;;14.70;7.05;;;;;;;;;;5009116;28;20026;-82
2021/12/18 07:05:52;;;;;;;14.23;7.68;;;;;;;;;;5000333;28;20037;-84
2021/12/18 07:08:18;;;;;;;15.93;7.70;;;;;;;;;;5010278;28;20374;-83
2021/12/18 07:10:44;;;;;;;14.07;6.82;;;;;;;;;;5007737;28;20030;-84
2021/12/18 07:13:09;;;;;;;12.68;7.07;;;;;;;;;;4989977;28;20089;-84
2021/12/18 07:15:35;;;;;;;14.60;7.35;;;;;;;;;;5000780;28;20061;-84
2021/12/18 07:18:00;;;;;;;16.55;7.47;;;;;;;;;;4996511;28;20077;-84
2021/12/18 07:20:27;;;;;;;15.45;6.95;;;;;;;;;;4993643;28;20034;-83
2021/12/18 07:22:53;;;;;;;13.02;6.57;;;;;;;;;;5016067;28;20096;-83
2021/12/18 07:25:19;;;;;;;12.23;6.72;;;;;;;;;;5001415;28;20018;-83
2021/12/18 07:27:44;;;;;;;12.25;6.63;;;;;;;;;;5009499;28;20476;-83
2021/12/18 07:30:11;;;;;;;14.13;7.20;;;;;;;;;;4999405;28;20034;-82
2021/12/18 07:32:37;;;;;;;13.35;7.38;;;;;;;;;;5011369;28;20022;-82
2021/12/18 07:35:03;;;;;;;14.57;7.32;;;;;;;;;;5001831;28;20022;-83
2021/12/18 07:37:29;;;;;;;12.82;7.13;;;;;;;;;;5004794;28;20107;-82
2021/12/18 07:39:54;;;;;;;14.13;7.63;;;;;;;;;;5007916;28;20049;-83
2021/12/18 07:42:21;;;;;;;14.32;6.88;;;;;;;;;;5009627;28;20058;-82
2021/12/18 07:44:47;;;;;;;15.05;7.65;;;;;;;;;;4987023;28;20054;-83
2021/12/18 07:47:12;;;;;;;12.77;6.70;;;;;;;;;;5005680;28;20026;-83
2021/12/18 07:49:38;;;;;;;14.30;7.22;;;;;;;;;;5001536;28;20033;-83
2021/12/18 07:52:04;;;;;;;15.00;7.72;;;;;;;;;;5016072;28;20030;-83
2021/12/18 07:54:30;;;;;;;17.27;8.23;;;;;;;;;;4989977;28;20030;-83
2021/12/18 07:56:55;;;;;;;16.45;7.97;;;;;;;;;;5004153;28;20061;-82
2021/12/18 07:59:21;;;;;;;13.77;7.50;;;;;;;;;;5008801;28;20026;-82
2021/12/18 08:01:46;;;;;;;11.65;6.63;;;;;;;;;;5006953;28;20050;-82
2021/12/18 08:04:11;;;;;;;14.23;7.47;;;;;;;;;;5007936;28;20450;-82
2021/12/18 08:06:37;;;;;;;15.23;7.20;;;;;;;;;;5004943;28;20030;-83
2021/12/18 08:09:03;;;;;;;11.95;6.70;;;;;;;;;;5021449;28;20104;-83
2021/12/18 08:11:28;;;;;;;16.65;7.72;;;;;;;;;;5011492;28;20033;-83
2021/12/18 08:13:54;;;;;;;15.13;7.43;;;;;;;;;;4995872;28;20030;-82
2021/12/18 08:16:19;;;;;;;14.88;7.63;;;;;;;;;;5001636;28;20026;-82
2021/12/18 08:18:44;;;;;;;12.90;6.55;;;;;;;;;;5017905;28;20018;-82
2021/12/18 08:21:10;;;;;;;17.05;7.65;;;;;;;;;;4993486;28;20105;-83
2021/12/18 08:23:35;;;;;;;14.90;7.20;;;;;;;;;;5013676;28;20029;-83
2021/12/18 08:26:00;;;;;;;13.90;6.70;;;;;;;;;;5006273;28;20019;-81
2021/12/18 08:28:26;;;;;;;12.20;6.78;;;;;;;;;;5007360;28;20035;-83
2021/12/18 08:30:51;;;;;;;12.80;6.78;;;;;;;;;;5007651;28;20520;-82
2021/12/18 08:33:17;;;;;;;13.80;7.15;;;;;;;;;;5017501;28;20025;-83
2021/12/18 08:35:42;;;;;;;15.27;7.00;;;;;;;;;;4992528;28;20085;-84
2021/12/18 08:38:08;;;;;;;13.05;7.38;;;;;;;;;;4999467;28;20102;-84
2021/12/18 08:40:35;;;;;;;12.85;7.32;;;;;;;;;;4993611;28;20026;-84
2021/12/18 08:43:00;;;;;;;13.07;7.00;;;;;;;;;;5007339;28;20025;-83
2021/12/18 08:45:26;;;;;;;16.65;8.27;;;;;;;;;;5016069;28;20093;-81
2021/12/18 08:47:52;;;;;;;19.00;7.60;;;;;;;;;;5002960;28;20034;-82
2021/12/18 08:50:18;;;;;;;12.68;7.10;;;;;;;;;;5010637;28;20022;-82
2021/12/18 08:52:45;;;;;;;13.43;7.35;;;;;;;;;;4991876;28;20085;-82
2021/12/18 08:55:12;;;;;;;10.35;5.57;;;;;;;;;;4995429;28;20797;-83
2021/12/18 08:57:37;;;;;;;14.38;6.93;;;;;;;;;;5003812;28;20022;-85
2021/12/18 09:00:11;;;;;;;15.55;7.28;;;;;;;;;;5016774;28;20040;-83
2021/12/18 09:02:41;;;;;;;13.00;6.75;;;;;;;;;;4990906;28;20057;-86
2021/12/18 09:05:09;;;;;;;15.20;7.72;;;;;;;;;;4993219;28;20455;-85
2021/12/18 09:07:34;;;;;;;12.88;6.40;;;;;;;;;;5004409;28;20026;-86
2021/12/18 09:10:00;;;;;;;14.70;6.70;;;;;;;;;;5017294;28;20041;-86
2021/12/18 09:12:25;;;;;;;14.20;7.53;;;;;;;;;;5013193;28;20088;-84
2021/12/18 09:14:51;;;;;;;11.40;5.90;;;;;;;;;;4993275;28;20400;-86
2021/12/18 09:17:17;;;;;;;14.95;7.47;;;;;;;;;;5005936;28;20049;-85
2021/12/18 09:19:42;;;;;;;16.00;7.55;;;;;;;;;;5011750;28;20017;-85
2021/12/18 09:22:09;;;;;;;14.18;7.78;;;;;;;;;;5009436;28;20022;-86
2021/12/18 09:24:34;;;;;;;16.08;6.82;;;;;;;;;;4991019;28;20014;-85
2021/12/18 09:27:00;;;;;;;15.90;7.03;;;;;;;;;;5013721;28;20018;-85
2021/12/18 09:29:25;;;;;;;12.88;7.18;;;;;;;;;;5009398;28;20022;-86
2021/12/18 09:31:51;;;;;;;18.17;8.45;;;;;;;;;;5010232;28;20480;-85
2021/12/18 09:34:17;;;;;;;17.02;7.57;;;;;;;;;;5014194;28;20034;-85
2021/12/18 09:36:42;;;;;;;16.23;7.68;;;;;;;;;;4997091;28;20037;-84
2021/12/18 09:39:08;;;;;;;12.57;6.90;;;;;;;;;;5011916;28;20038;-88
2021/12/18 09:41:34;;;;;;;13.35;7.38;;;;;;;;;;4985638;28;20018;-88
2021/12/18 09:43:59;;;;;;;16.35;7.60;;;;;;;;;;4992817;28;20025;-85
2021/12/18 09:46:25;;;;;;;8.98;5.25;;;;;;;;;;5008287;28;20022;-84
2021/12/18 09:48:50;;;;;;;14.15;8.02;;;;;;;;;;5010755;28;20026;-84
2021/12/18 09:51:25;;;;;;;14.43;6.40;;;;;;;;;;5005372;28;20027;-85
2021/12/18 09:53:53;;;;;;;13.98;6.68;;;;;;;;;;4999758;28;20033;-83
2021/12/18 09:56:18;;;;;;;13.02;6.57;;;;;;;;;;5002235;28;20030;-87
2021/12/18 09:58:44;;;;;;;12.50;6.45;;;;;;;;;;4987598;28;20119;-86
2021/12/18 10:01:09;;;;;;;10.85;5.55;;;;;;;;;;5003477;28;20536;-88
2021/12/18 10:04:05;;;;;;;14.10;7.20;;;;;;;;;;4981705;28;20477;-88
2021/12/18 10:06:41;;;;;;;10.60;6.10;;;;;;;;;;4979227;28;20038;-85
2021/12/18 10:09:08;;;;;;;10.95;5.88;;;;;;;;;;4998490;28;20041;-88
2021/12/18 10:11:50;;;;;;;14.32;6.90;;;;;;;;;;4997890;28;20106;-88
2021/12/18 10:14:17;;;;;;;15.40;7.28;;;;;;;;;;4957168;28;20026;-88
2021/12/18 10:16:51;;;;;;;9.35;5.47;;;;;;;;;;4990212;28;20030;-87
2021/12/18 10:19:29;;;;;;;10.73;6.55;;;;;;;;;;4994042;28;20097;-89
2021/12/18 10:21:59;;;;;;;12.90;6.50;;;;;;;;;;4979823;28;20026;-89
2021/12/18 10:24:26;;;;;;;14.30;7.10;;;;;;;;;;4974692;28;20393;-86
2021/12/18 10:26:52;;;;;;;16.75;7.50;;;;;;;;;;4998438;28;20026;-88
2021/12/18 10:29:44;;;;;;;17.63;7.65;;;;;;;;;;4981771;28;20019;-87
2021/12/18 10:32:11;;;;;;;;;;;;;;;;;;4993232;28;20681;-89
2021/12/18 10:34:39;;;;;;;12.30;6.07;;;;;;;;;;4996603;28;20459;-86
2021/12/18 10:37:29;;;;;;;12.23;6.38;;;;;;;;;;4999005;28;20042;-87
2021/12/18 10:39:56;;;;;;;13.80;6.47;;;;;;;;;;4980224;28;20078;-86
2021/12/18 10:42:28;;;;;;;15.25;7.22;;;;;;;;;;4999964;28;20030;-86
2021/12/18 10:45:02;;;;;;;11.93;7.38;;;;;;;;;;4999065;28;20022;-87
2021/12/18 10:47:50;;;;;;;17.30;8.23;;;;;;;;;;4983261;28;20030;-86
2021/12/18 10:50:27;;;;;;;13.48;7.55;;;;;;;;;;5004098;28;20026;-85
2021/12/18 10:53:08;;;;;;;12.52;7.25;;;;;;;;;;5008111;28;20118;-86
2021/12/18 10:55:45;;;;;;;15.23;7.60;;;;;;;;;;5001494;28;20033;-83
2021/12/18 10:58:16;;;;;;;18.75;8.23;;;;;;;;;;4985848;28;20018;-85
2021/12/18 11:01:12;;;;;;;13.75;7.15;;;;;;;;;;5004553;28;20579;-84
2021/12/18 11:03:39;;;;;;;16.33;7.38;;;;;;;;;;4982922;28;20038;-85
2021/12/18 11:06:27;;;;;;;15.25;8.02;;;;;;;;;;5005621;28;20045;-84
2021/12/18 11:09:00;;;;;;;15.57;8.57;;;;;;;;;;4987363;28;20045;-86
2021/12/18 11:14:12;;;;;;;18.10;8.48;;;;;;;;;;5002195;28;20046;-88
2021/12/18 11:16:39;;;;;;;19.08;8.98;;;;;;;;;;4983565;28;20061;-86
2021/12/18 11:19:13;;;;;;;19.70;9.60;;;;;;;;;;5001909;28;20037;-89
2021/12/18 11:21:46;;;;;;;21.20;9.45;;;;;;;;;;4984727;28;20029;-87
2021/12/18 11:24:14;;;;;;;17.10;7.32;;;;;;;;;;5008100;28;20010;-86
2021/12/18 11:27:06;;;;;;;13.68;7.80;;;;;;;;;;5005663;28;20049;-84
2021/12/18 11:29:34;;;;;;;18.05;7.43;;;;;;;;;;4993897;28;20038;-84
2021/12/18 11:32:02;;;;;;;14.80;7.25;;;;;;;;;;4990354;28;20052;-88
2021/12/18 11:34:44;;;;;;;14.48;7.75;;;;;;;;;;4983339;28;20026;-89
2021/12/18 11:37:20;;;;;;;15.30;7.55;;;;;;;;;;4999352;28;20034;-88
2021/12/18 11:39:50;;;;;;;16.00;7.88;;;;;;;;;;4970200;28;20065;-87
2021/12/18 11:42:17;;;;;;;15.65;8.43;;;;;;;;;;4989078;28;20038;-85
2021/12/18 11:44:54;;;;;;;18.38;7.03;;;;;;;;;;5002488;28;20041;-87
2021/12/18 11:47:53;;;;;;;15.10;7.45;;;;;;;;;;5006533;28;20104;-85
2021/12/18 11:50:23;;;;;;;15.55;7.18;;;;;;;;;;4997964;28;20031;-87
2021/12/18 11:53:02;;;;;;;16.45;7.93;;;;;;;;;;5013683;28;20041;-83
2021/12/18 11:55:32;;;;;;;14.85;7.90;;;;;;;;;;4997759;28;20019;-82
2021/12/18 11:58:09;;;;;;;12.55;7.10;;;;;;;;;;4990299;28;20103;-83
2021/12/18 12:00:37;;;;;;;15.63;7.97;;;;;;;;;;5023297;28;20026;-82
2021/12/18 12:03:04;;;;;;;13.68;7.32;;;;;;;;;;5010407;28;20022;-80
2021/12/18 12:05:39;;;;;;;14.55;7.32;;;;;;;;;;5000611;28;20027;-85
2021/12/18 12:08:18;;;;;;;15.02;7.78;;;;;;;;;;5000304;28;20015;-81
2021/12/18 12:11:15;;;;;;;15.18;7.45;;;;;;;;;;5010809;28;20034;-85
2021/12/18 12:14:13;;;;;;;12.68;6.75;;;;;;;;;;5001442;28;20023;-86
2021/12/18 12:19:14;;;;;;;13.40;6.22;;;;;;;;;;5001871;28;20053;-83
2021/12/18 12:21:40;;;;;;;12.40;7.53;;;;;;;;;;4988236;28;20038;-86
2021/12/18 12:24:06;;;;;;;13.20;7.22;;;;;;;;;;5013911;28;20389;-84
2021/12/18 12:26:31;;;;;;;12.32;6.97;;;;;;;;;;4992616;28;20030;-85
2021/12/18 12:28:57;;;;;;;14.60;7.47;;;;;;;;;;4991591;28;20035;-84
2021/12/18 12:31:23;;;;;;;18.70;8.38;;;;;;;;;;4984737;28;20060;-86
2021/12/18 12:33:50;;;;;;;14.25;7.78;;;;;;;;;;5006052;28;20030;-83
2021/12/18 12:36:27;;;;;;;12.95;6.85;;;;;;;;;;4978033;28;20030;-87
2021/12/18 12:38:56;;;;;;;13.70;7.55;;;;;;;;;;5002157;28;21467;-88
2021/12/18 12:41:33;;;;;;;12.20;6.90;;;;;;;;;;4993125;28;20023;-88
2021/12/18 12:44:14;;;;;;;14.93;7.75;;;;;;;;;;5003501;28;20113;-88
2021/12/18 12:46:40;;;;;;;13.07;6.82;;;;;;;;;;5021244;28;20053;-87
2021/12/18 12:49:18;;;;;;;12.43;7.22;;;;;;;;;;4991893;28;20153;-86
2021/12/18 12:52:00;;;;;;;13.38;7.25;;;;;;;;;;5002582;28;20634;-88
2021/12/18 12:54:37;;;;;;;13.95;7.10;;;;;;;;;;5008477;28;20026;-86
2021/12/18 12:57:22;;;;;;;10.45;6.63;;;;;;;;;;5016771;28;20150;-89
2021/12/18 12:59:51;;;;;;;13.18;6.63;;;;;;;;;;5020872;28;20038;-85
2021/12/18 13:02:17;;;;;;;12.77;7.18;;;;;;;;;;5008920;28;20105;-84
2021/12/18 13:04:42;;;;;;;13.35;7.10;;;;;;;;;;5015991;28;20033;-84
2021/12/18 13:07:09;;;;;;;14.85;7.72;;;;;;;;;;5015085;28;20654;-83
2021/12/18 13:09:36;;;;;;;13.23;6.65;;;;;;;;;;4992961;28;20564;-85
2021/12/18 13:12:04;;;;;;;14.38;7.80;;;;;;;;;;4997691;28;20014;-85
2021/12/18 13:14:41;;;;;;;14.25;8.00;;;;;;;;;;5013288;28;20030;-85
2021/12/18 13:17:21;;;;;;;15.68;8.52;;;;;;;;;;4995185;28;20045;-84
2021/12/18 13:19:56;;;;;;;12.80;7.03;;;;;;;;;;5002179;28;20073;-86
2021/12/18 13:22:27;;;;;;;16.98;6.60;;;;;;;;;;5004558;28;20086;-87
2021/12/18 13:25:07;;;;;;;13.68;6.60;;;;;;;;;;5006178;28;20057;-83
2021/12/18 13:27:35;;;;;;;12.10;7.22;;;;;;;;;;5013038;28;20110;-81
2021/12/18 13:30:14;;;;;;;14.18;7.47;;;;;;;;;;5008237;28;20058;-84
2021/12/18 13:33:04;;;;;;;12.02;7.20;;;;;;;;;;5011053;28;20029;-83
2021/12/18 13:35:35;;;;;;;12.40;6.50;;;;;;;;;;5011411;28;20034;-84
2021/12/18 13:38:01;;;;;;;12.37;7.60;;;;;;;;;;5011647;28;20089;-85
2021/12/18 13:40:30;;;;;;;14.73;8.23;;;;;;;;;;4997025;28;20029;-84
2021/12/18 13:43:11;;;;;;;13.57;7.47;;;;;;;;;;5022804;28;20049;-83
2021/12/18 13:45:51;;;;;;;14.30;8.25;;;;;;;;;;5000429;28;20440;-82
2021/12/18 13:48:22;;;;;;;11.75;7.22;;;;;;;;;;5006035;28;20091;-84
2021/12/18 13:51:10;;;;;;;11.93;7.43;;;;;;;;;;4981990;28;20062;-83
2021/12/18 13:54:04;;;;;;;14.50;7.50;;;;;;;;;;4987498;28;20452;-84
2021/12/18 13:56:43;;;;;;;13.10;7.20;;;;;;;;;;4998582;28;20061;-85
2021/12/18 13:59:19;;;;;;;14.15;8.40;;;;;;;;;;5015138;28;20077;-86
2021/12/18 14:01:45;;;;;;;13.50;7.47;;;;;;;;;;5022543;28;20042;-86
2021/12/18 14:04:20;;;;;;;14.13;7.80;;;;;;;;;;5027328;28;20026;-86
2021/12/18 14:06:46;;;;;;;14.82;8.38;;;;;;;;;;5019162;28;20026;-86
2021/12/18 14:09:22;;;;;;;12.90;7.72;;;;;;;;;;4992565;28;20073;-86
2021/12/18 14:12:12;;;;;;;20.92;7.40;;;;;;;;;;5004800;28;20073;-85
2021/12/18 14:14:48;;;;;;;13.63;6.85;;;;;;;;;;4980613;28;20053;-84
2021/12/18 14:17:16;;;;;;;13.68;7.68;;;;;;;;;;4992537;28;20026;-86
2021/12/18 14:19:47;;;;;;;15.00;7.45;;;;;;;;;;5004922;28;20018;-84
2021/12/18 14:22:12;;;;;;;11.68;7.60;;;;;;;;;;5002633;28;20046;-84
2021/12/18 14:24:40;;;;;;;14.48;7.88;;;;;;;;;;4983322;28;20038;-84
2021/12/18 14:27:13;;;;;;;14.55;7.70;;;;;;;;;;5009135;28;20022;-85
2021/12/18 14:29:45;;;;;;;15.40;8.43;;;;;;;;;;4990908;28;20029;-85
2021/12/18 14:32:10;;;;;;;18.33;8.25;;;;;;;;;;5007334;28;20026;-87
2021/12/18 14:34:41;;;;;;;16.27;7.70;;;;;;;;;;5000906;28;20041;-87
2021/12/18 14:37:18;;;;;;;16.02;8.57;;;;;;;;;;4993351;28;20061;-84
2021/12/18 14:39:43;;;;;;;16.05;8.15;;;;;;;;;;4999531;28;20022;-84
2021/12/18 14:42:12;;;;;;;20.98;10.70;;;;;;;;;;5006966;28;20114;-84
2021/12/18 14:45:15;;;;;;;16.08;9.18;;;;;;;;;;5002642;28;20053;-83
2021/12/18 14:47:43;;;;;;;15.38;9.05;;;;;;;;;;4966996;28;20042;-85
2021/12/18 14:50:13;;;;;;;17.05;9.68;;;;;;;;;;5002775;28;20033;-84
2021/12/18 14:52:54;;;;;;;16.80;9.10;;;;;;;;;;4985791;28;20480;-84
2021/12/18 14:55:39;;;;;;;20.58;9.85;;;;;;;;;;4987743;28;20093;-82
2021/12/18 14:58:05;;;;;;;18.30;9.85;;;;;;;;;;5005811;28;20072;-85
2021/12/18 15:00:48;;;;;;;18.65;10.23;;;;;;;;;;5005381;28;20090;-85
2021/12/18 15:03:21;;;;;;;;;;;;;;;;;;5015272;28;20022;-83
2021/12/18 15:05:50;;;;;;;17.95;10.60;;;;;;;;;;4998917;28;20436;-82
2021/12/18 15:08:21;;;;;;;19.73;10.70;;;;;;;;;;5011552;28;20026;-87
2021/12/18 15:10:51;;;;;;;20.48;10.95;;;;;;;;;;5001471;28;20026;-86
2021/12/18 15:13:19;;;;;;;17.63;10.73;;;;;;;;;;5007360;28;20027;-85
2021/12/18 15:15:45;;;;;;;20.98;10.30;;;;;;;;;;5010549;28;20036;-86
2021/12/18 15:18:11;;;;;;;15.75;9.30;;;;;;;;;;4990109;28;20018;-85